LEAL/ALC METAR and TAF weather

Enter ICAO airport designator
Station Type Date Time Source
LEAL METAR 2019/06/26 20:00 UTC NOAA

LEAL 262000Z 24003KT CAVOK 25/21 Q1016 NOSIG


Station Type Date Time Source
LEAL Decoded METAR 2019/06/26 20:00 UTC NOAA

Alicante / El Altet, Spain (LEAL) 38-17N 000-33W 31M
Jun 26, 2019 - 04:00 PM EDT / 2019.06.26 2000 UTC
Wind: from the WSW (240 degrees) at 3 MPH (3 KT):0
Visibility: greater than 7 mile(s):0
Temperature: 77 F (25 C)
Dew Point: 69 F (21 C)
Relative Humidity: 78%
Pressure (altimeter): 30.00 in. Hg (1016 hPa)
ob: LEAL 262000Z 24003KT CAVOK 25/21 Q1016 NOSIG
cycle: 20

Station Type Date Time Source
LEAL TAF 2019/06/26 18:27 UTC NOAA

TAF TAF LEAL 261700Z 2618/2718 07010KT CAVOK TX33/2712Z TN23/2706Z
BECMG 2619/2621 VRB05KT
BECMG 2706/2708 07020KT
TEMPO 2708/2718 07020G30KT

Example: see airport list